sensor_id;sensor_type;location;lat;lon;timestamp;P1;durP1;ratioP1;P2;durP2;ratioP2
7493;SDS011;3788;49.902;8.590;2022-12-15T00:02:42;14.53;;;9.07;;
7493;SDS011;3788;49.902;8.590;2022-12-15T00:05:28;14.70;;;9.80;;
7493;SDS011;3788;49.902;8.590;2022-12-15T00:08:12;14.67;;;9.77;;
7493;SDS011;3788;49.902;8.590;2022-12-15T00:10:56;13.03;;;8.67;;
7493;SDS011;3788;49.902;8.590;2022-12-15T00:13:40;12.57;;;9.30;;
7493;SDS011;3788;49.902;8.590;2022-12-15T00:16:24;13.73;;;9.23;;
7493;SDS011;3788;49.902;8.590;2022-12-15T00:19:08;15.63;;;10.37;;
7493;SDS011;3788;49.902;8.590;2022-12-15T00:21:54;12.07;;;9.20;;
7493;SDS011;3788;49.902;8.590;2022-12-15T00:24:38;16.27;;;10.17;;
7493;SDS011;3788;49.902;8.590;2022-12-15T00:27:22;14.80;;;9.93;;
7493;SDS011;3788;49.902;8.590;2022-12-15T00:30:07;16.07;;;10.90;;
7493;SDS011;3788;49.902;8.590;2022-12-15T00:32:52;17.20;;;10.50;;
7493;SDS011;3788;49.902;8.590;2022-12-15T00:35:37;16.83;;;10.97;;
7493;SDS011;3788;49.902;8.590;2022-12-15T00:38:22;16.07;;;9.53;;
7493;SDS011;3788;49.902;8.590;2022-12-15T00:41:08;13.40;;;9.53;;
7493;SDS011;3788;49.902;8.590;2022-12-15T00:43:35;13.17;;;9.70;;
7493;SDS011;3788;49.902;8.590;2022-12-15T00:46:03;15.37;;;10.17;;
7493;SDS011;3788;49.902;8.590;2022-12-15T00:48:48;14.97;;;10.13;;
7493;SDS011;3788;49.902;8.590;2022-12-15T00:51:15;14.23;;;10.20;;
7493;SDS011;3788;49.902;8.590;2022-12-15T00:53:43;16.43;;;10.17;;
7493;SDS011;3788;49.902;8.590;2022-12-15T00:56:27;14.13;;;9.60;;
7493;SDS011;3788;49.902;8.590;2022-12-15T00:59:13;18.03;;;9.67;;
7493;SDS011;3788;49.902;8.590;2022-12-15T01:01:58;13.97;;;9.27;;
7493;SDS011;3788;49.902;8.590;2022-12-15T01:04:42;15.27;;;9.20;;
7493;SDS011;3788;49.902;8.590;2022-12-15T01:07:26;16.30;;;9.77;;
7493;SDS011;3788;49.902;8.590;2022-12-15T01:10:12;15.00;;;9.53;;
7493;SDS011;3788;49.902;8.590;2022-12-15T01:12:56;16.07;;;9.77;;
7493;SDS011;3788;49.902;8.590;2022-12-15T01:15:40;17.90;;;11.30;;
7493;SDS011;3788;49.902;8.590;2022-12-15T01:18:24;17.23;;;11.60;;
7493;SDS011;3788;49.902;8.590;2022-12-15T01:21:09;18.87;;;13.07;;
7493;SDS011;3788;49.902;8.590;2022-12-15T01:23:37;19.57;;;12.00;;
7493;SDS011;3788;49.902;8.590;2022-12-15T01:26:05;17.63;;;11.03;;
7493;SDS011;3788;49.902;8.590;2022-12-15T01:28:32;17.80;;;10.77;;
7493;SDS011;3788;49.902;8.590;2022-12-15T01:30:59;18.00;;;10.50;;
7493;SDS011;3788;49.902;8.590;2022-12-15T01:33:26;15.47;;;10.90;;
7493;SDS011;3788;49.902;8.590;2022-12-15T01:35:56;15.87;;;10.43;;
7493;SDS011;3788;49.902;8.590;2022-12-15T01:38:23;16.43;;;10.90;;
7493;SDS011;3788;49.902;8.590;2022-12-15T01:40:51;16.53;;;10.50;;
7493;SDS011;3788;49.902;8.590;2022-12-15T01:43:21;17.07;;;10.60;;
7493;SDS011;3788;49.902;8.590;2022-12-15T01:45:53;16.23;;;9.63;;
7493;SDS011;3788;49.902;8.590;2022-12-15T01:48:24;14.53;;;9.77;;
7493;SDS011;3788;49.902;8.590;2022-12-15T01:50:59;13.07;;;9.60;;
7493;SDS011;3788;49.902;8.590;2022-12-15T01:53:31;15.47;;;9.10;;
7493;SDS011;3788;49.902;8.590;2022-12-15T01:56:02;15.10;;;9.53;;
7493;SDS011;3788;49.902;8.590;2022-12-15T01:58:31;13.87;;;8.47;;
7493;SDS011;3788;49.902;8.590;2022-12-15T02:01:00;13.43;;;9.07;;
7493;SDS011;3788;49.902;8.590;2022-12-15T02:03:28;12.83;;;8.63;;
7493;SDS011;3788;49.902;8.590;2022-12-15T02:05:56;14.10;;;8.90;;
7493;SDS011;3788;49.902;8.590;2022-12-15T02:08:25;13.00;;;8.43;;
7493;SDS011;3788;49.902;8.590;2022-12-15T02:10:56;13.37;;;8.50;;
7493;SDS011;3788;49.902;8.590;2022-12-15T02:13:48;12.10;;;8.53;;
7493;SDS011;3788;49.902;8.590;2022-12-15T02:16:22;14.40;;;8.67;;
7493;SDS011;3788;49.902;8.590;2022-12-15T02:18:56;14.20;;;8.90;;
7493;SDS011;3788;49.902;8.590;2022-12-15T02:21:28;12.00;;;7.90;;
7493;SDS011;3788;49.902;8.590;2022-12-15T02:24:05;13.47;;;9.23;;
7493;SDS011;3788;49.902;8.590;2022-12-15T02:30:11;11.77;;;8.20;;
7493;SDS011;3788;49.902;8.590;2022-12-15T02:32:42;13.30;;;8.40;;
7493;SDS011;3788;49.902;8.590;2022-12-15T02:35:15;14.20;;;9.10;;
7493;SDS011;3788;49.902;8.590;2022-12-15T02:37:49;12.67;;;8.27;;
7493;SDS011;3788;49.902;8.590;2022-12-15T02:40:17;13.10;;;8.43;;
7493;SDS011;3788;49.902;8.590;2022-12-15T02:42:44;12.83;;;8.27;;
7493;SDS011;3788;49.902;8.590;2022-12-15T02:45:15;9.53;;;7.30;;
7493;SDS011;3788;49.902;8.590;2022-12-15T02:47:46;11.90;;;8.30;;
7493;SDS011;3788;49.902;8.590;2022-12-15T02:50:30;10.50;;;7.43;;
7493;SDS011;3788;49.902;8.590;2022-12-15T02:53:11;10.47;;;7.30;;
7493;SDS011;3788;49.902;8.590;2022-12-15T02:55:49;12.73;;;8.60;;
7493;SDS011;3788;49.902;8.590;2022-12-15T02:58:25;13.60;;;8.73;;
7493;SDS011;3788;49.902;8.590;2022-12-15T03:01:04;10.53;;;7.37;;
7493;SDS011;3788;49.902;8.590;2022-12-15T03:03:34;11.43;;;7.87;;
7493;SDS011;3788;49.902;8.590;2022-12-15T03:06:03;10.67;;;7.67;;
7493;SDS011;3788;49.902;8.590;2022-12-15T03:08:30;12.00;;;7.50;;
7493;SDS011;3788;49.902;8.590;2022-12-15T03:10:57;12.40;;;8.20;;
7493;SDS011;3788;49.902;8.590;2022-12-15T03:13:24;12.27;;;8.10;;
7493;SDS011;3788;49.902;8.590;2022-12-15T03:15:51;12.83;;;8.27;;
7493;SDS011;3788;49.902;8.590;2022-12-15T03:18:19;13.20;;;8.20;;
7493;SDS011;3788;49.902;8.590;2022-12-15T03:20:46;13.67;;;8.43;;
7493;SDS011;3788;49.902;8.590;2022-12-15T03:23:13;11.63;;;8.00;;
7493;SDS011;3788;49.902;8.590;2022-12-15T03:25:40;11.13;;;7.83;;
7493;SDS011;3788;49.902;8.590;2022-12-15T03:28:06;13.33;;;8.27;;
7493;SDS011;3788;49.902;8.590;2022-12-15T03:30:33;14.07;;;8.70;;
7493;SDS011;3788;49.902;8.590;2022-12-15T03:33:00;9.73;;;6.93;;
7493;SDS011;3788;49.902;8.590;2022-12-15T03:35:28;12.20;;;8.73;;
7493;SDS011;3788;49.902;8.590;2022-12-15T03:37:55;12.80;;;9.43;;
7493;SDS011;3788;49.902;8.590;2022-12-15T03:40:22;14.20;;;9.20;;
7493;SDS011;3788;49.902;8.590;2022-12-15T03:42:49;15.43;;;8.60;;
7493;SDS011;3788;49.902;8.590;2022-12-15T03:45:15;13.23;;;8.87;;
7493;SDS011;3788;49.902;8.590;2022-12-15T03:47:43;11.90;;;8.30;;
7493;SDS011;3788;49.902;8.590;2022-12-15T03:50:11;12.77;;;7.97;;
7493;SDS011;3788;49.902;8.590;2022-12-15T03:52:41;12.70;;;8.03;;
7493;SDS011;3788;49.902;8.590;2022-12-15T03:55:09;12.83;;;7.83;;
7493;SDS011;3788;49.902;8.590;2022-12-15T03:57:36;12.60;;;8.23;;
7493;SDS011;3788;49.902;8.590;2022-12-15T04:00:03;13.67;;;7.97;;
7493;SDS011;3788;49.902;8.590;2022-12-15T04:02:31;10.43;;;7.77;;
7493;SDS011;3788;49.902;8.590;2022-12-15T04:04:58;12.20;;;7.70;;
7493;SDS011;3788;49.902;8.590;2022-12-15T04:07:25;12.50;;;7.63;;
7493;SDS011;3788;49.902;8.590;2022-12-15T04:09:53;10.90;;;7.27;;
7493;SDS011;3788;49.902;8.590;2022-12-15T04:12:19;14.27;;;8.77;;
7493;SDS011;3788;49.902;8.590;2022-12-15T04:14:46;12.63;;;8.17;;
7493;SDS011;3788;49.902;8.590;2022-12-15T04:17:13;12.53;;;8.53;;
7493;SDS011;3788;49.902;8.590;2022-12-15T04:19:40;13.03;;;8.67;;
7493;SDS011;3788;49.902;8.590;2022-12-15T04:22:24;13.80;;;7.80;;
7493;SDS011;3788;49.902;8.590;2022-12-15T04:24:52;14.33;;;8.20;;
7493;SDS011;3788;49.902;8.590;2022-12-15T04:27:36;13.43;;;8.53;;
7493;SDS011;3788;49.902;8.590;2022-12-15T04:30:20;11.63;;;7.73;;
7493;SDS011;3788;49.902;8.590;2022-12-15T04:33:05;12.50;;;7.60;;
7493;SDS011;3788;49.902;8.590;2022-12-15T04:35:49;14.80;;;8.37;;
7493;SDS011;3788;49.902;8.590;2022-12-15T04:38:34;15.37;;;8.57;;
7493;SDS011;3788;49.902;8.590;2022-12-15T04:41:20;14.07;;;8.37;;
7493;SDS011;3788;49.902;8.590;2022-12-15T04:44:07;12.30;;;9.23;;
7493;SDS011;3788;49.902;8.590;2022-12-15T04:46:53;12.70;;;8.80;;
7493;SDS011;3788;49.902;8.590;2022-12-15T04:49:37;13.67;;;8.50;;
7493;SDS011;3788;49.902;8.590;2022-12-15T04:52:21;16.03;;;9.37;;
7493;SDS011;3788;49.902;8.590;2022-12-15T04:55:06;13.70;;;8.07;;
7493;SDS011;3788;49.902;8.590;2022-12-15T04:57:52;14.73;;;9.27;;
7493;SDS011;3788;49.902;8.590;2022-12-15T05:03:04;12.90;;;8.57;;
7493;SDS011;3788;49.902;8.590;2022-12-15T05:05:50;14.60;;;8.77;;
7493;SDS011;3788;49.902;8.590;2022-12-15T05:08:34;13.37;;;8.70;;
7493;SDS011;3788;49.902;8.590;2022-12-15T05:11:19;14.27;;;9.03;;
7493;SDS011;3788;49.902;8.590;2022-12-15T05:14:04;14.23;;;9.47;;
7493;SDS011;3788;49.902;8.590;2022-12-15T05:16:49;12.07;;;8.50;;
7493;SDS011;3788;49.902;8.590;2022-12-15T05:19:33;14.60;;;8.60;;
7493;SDS011;3788;49.902;8.590;2022-12-15T05:22:17;16.90;;;9.47;;
7493;SDS011;3788;49.902;8.590;2022-12-15T05:25:01;15.10;;;8.87;;
7493;SDS011;3788;49.902;8.590;2022-12-15T05:27:46;14.63;;;9.57;;
7493;SDS011;3788;49.902;8.590;2022-12-15T05:30:32;14.43;;;9.83;;
7493;SDS011;3788;49.902;8.590;2022-12-15T05:33:16;16.40;;;9.77;;
7493;SDS011;3788;49.902;8.590;2022-12-15T05:35:43;15.40;;;10.63;;
7493;SDS011;3788;49.902;8.590;2022-12-15T05:38:10;17.73;;;11.10;;
7493;SDS011;3788;49.902;8.590;2022-12-15T05:40:37;17.50;;;11.27;;
7493;SDS011;3788;49.902;8.590;2022-12-15T05:43:03;15.57;;;10.93;;
7493;SDS011;3788;49.902;8.590;2022-12-15T05:45:32;18.93;;;11.23;;
7493;SDS011;3788;49.902;8.590;2022-12-15T05:47:58;15.77;;;10.30;;
7493;SDS011;3788;49.902;8.590;2022-12-15T05:50:25;19.50;;;11.13;;
7493;SDS011;3788;49.902;8.590;2022-12-15T05:52:52;18.13;;;10.70;;
7493;SDS011;3788;49.902;8.590;2022-12-15T05:55:19;20.00;;;11.90;;
7493;SDS011;3788;49.902;8.590;2022-12-15T05:57:49;19.73;;;11.97;;
7493;SDS011;3788;49.902;8.590;2022-12-15T06:00:17;19.00;;;11.60;;
7493;SDS011;3788;49.902;8.590;2022-12-15T06:02:45;19.13;;;11.33;;
7493;SDS011;3788;49.902;8.590;2022-12-15T06:05:12;15.87;;;11.13;;
7493;SDS011;3788;49.902;8.590;2022-12-15T06:07:39;15.97;;;10.47;;
7493;SDS011;3788;49.902;8.590;2022-12-15T06:10:06;15.73;;;10.30;;
7493;SDS011;3788;49.902;8.590;2022-12-15T06:12:34;16.23;;;10.47;;
7493;SDS011;3788;49.902;8.590;2022-12-15T06:15:01;13.33;;;9.47;;
7493;SDS011;3788;49.902;8.590;2022-12-15T06:17:28;17.50;;;10.90;;
7493;SDS011;3788;49.902;8.590;2022-12-15T06:19:56;16.50;;;10.37;;
7493;SDS011;3788;49.902;8.590;2022-12-15T06:22:23;15.13;;;9.40;;
7493;SDS011;3788;49.902;8.590;2022-12-15T06:24:50;16.73;;;9.47;;
7493;SDS011;3788;49.902;8.590;2022-12-15T06:27:16;15.43;;;9.50;;
7493;SDS011;3788;49.902;8.590;2022-12-15T06:29:43;15.63;;;9.90;;
7493;SDS011;3788;49.902;8.590;2022-12-15T06:32:10;14.90;;;9.70;;
7493;SDS011;3788;49.902;8.590;2022-12-15T06:34:37;16.33;;;10.20;;
7493;SDS011;3788;49.902;8.590;2022-12-15T06:37:05;15.27;;;9.93;;
7493;SDS011;3788;49.902;8.590;2022-12-15T06:39:32;14.73;;;9.73;;
7493;SDS011;3788;49.902;8.590;2022-12-15T06:41:58;16.43;;;10.47;;
7493;SDS011;3788;49.902;8.590;2022-12-15T06:44:25;19.45;;;12.95;;
7493;SDS011;3788;49.902;8.590;2022-12-15T06:46:52;16.63;;;11.23;;
7493;SDS011;3788;49.902;8.590;2022-12-15T06:49:19;19.37;;;11.90;;
7493;SDS011;3788;49.902;8.590;2022-12-15T06:51:47;18.10;;;11.57;;
7493;SDS011;3788;49.902;8.590;2022-12-15T06:54:15;18.97;;;11.97;;
7493;SDS011;3788;49.902;8.590;2022-12-15T06:56:42;18.03;;;11.63;;
7493;SDS011;3788;49.902;8.590;2022-12-15T06:59:10;18.23;;;10.70;;
7493;SDS011;3788;49.902;8.590;2022-12-15T07:01:37;16.80;;;10.83;;
7493;SDS011;3788;49.902;8.590;2022-12-15T07:04:05;19.57;;;12.63;;
7493;SDS011;3788;49.902;8.590;2022-12-15T07:06:33;18.03;;;11.60;;
7493;SDS011;3788;49.902;8.590;2022-12-15T07:09:01;17.40;;;11.87;;
7493;SDS011;3788;49.902;8.590;2022-12-15T07:11:30;20.03;;;12.03;;
7493;SDS011;3788;49.902;8.590;2022-12-15T07:13:57;17.43;;;11.60;;
7493;SDS011;3788;49.902;8.590;2022-12-15T07:16:24;17.10;;;10.97;;
7493;SDS011;3788;49.902;8.590;2022-12-15T07:18:50;18.27;;;11.63;;
7493;SDS011;3788;49.902;8.590;2022-12-15T07:21:17;18.33;;;11.57;;
7493;SDS011;3788;49.902;8.590;2022-12-15T07:23:44;20.97;;;12.30;;
7493;SDS011;3788;49.902;8.590;2022-12-15T07:26:12;21.17;;;12.77;;
7493;SDS011;3788;49.902;8.590;2022-12-15T07:28:40;23.67;;;13.37;;
7493;SDS011;3788;49.902;8.590;2022-12-15T07:31:08;19.67;;;12.13;;
7493;SDS011;3788;49.902;8.590;2022-12-15T07:33:36;22.97;;;13.30;;
7493;SDS011;3788;49.902;8.590;2022-12-15T07:36:04;22.07;;;14.07;;
7493;SDS011;3788;49.902;8.590;2022-12-15T07:38:32;22.47;;;13.10;;
7493;SDS011;3788;49.902;8.590;2022-12-15T07:40:59;22.10;;;13.10;;
7493;SDS011;3788;49.902;8.590;2022-12-15T07:43:27;24.30;;;14.07;;
7493;SDS011;3788;49.902;8.590;2022-12-15T07:45:56;28.73;;;14.80;;
7493;SDS011;3788;49.902;8.590;2022-12-15T07:48:23;25.03;;;14.47;;
7493;SDS011;3788;49.902;8.590;2022-12-15T07:50:51;28.77;;;15.10;;
7493;SDS011;3788;49.902;8.590;2022-12-15T07:53:22;29.10;;;16.13;;
7493;SDS011;3788;49.902;8.590;2022-12-15T07:55:53;31.10;;;16.10;;
7493;SDS011;3788;49.902;8.590;2022-12-15T07:58:22;33.77;;;15.40;;
7493;SDS011;3788;49.902;8.590;2022-12-15T08:00:50;30.37;;;15.80;;
7493;SDS011;3788;49.902;8.590;2022-12-15T08:03:18;22.40;;;13.23;;
7493;SDS011;3788;49.902;8.590;2022-12-15T08:05:46;19.60;;;13.53;;
7493;SDS011;3788;49.902;8.590;2022-12-15T08:08:12;22.60;;;14.30;;
7493;SDS011;3788;49.902;8.590;2022-12-15T08:10:39;23.00;;;14.73;;
7493;SDS011;3788;49.902;8.590;2022-12-15T08:13:06;25.83;;;14.33;;
7493;SDS011;3788;49.902;8.590;2022-12-15T08:15:34;25.17;;;15.57;;
7493;SDS011;3788;49.902;8.590;2022-12-15T08:18:01;25.40;;;15.93;;
7493;SDS011;3788;49.902;8.590;2022-12-15T08:20:30;25.87;;;15.57;;
7493;SDS011;3788;49.902;8.590;2022-12-15T08:22:57;26.23;;;14.47;;
7493;SDS011;3788;49.902;8.590;2022-12-15T08:25:24;18.37;;;12.97;;
7493;SDS011;3788;49.902;8.590;2022-12-15T08:27:53;22.23;;;14.60;;
7493;SDS011;3788;49.902;8.590;2022-12-15T08:30:20;19.33;;;12.60;;
7493;SDS011;3788;49.902;8.590;2022-12-15T08:32:47;24.93;;;15.17;;
7493;SDS011;3788;49.902;8.590;2022-12-15T08:35:14;24.00;;;16.20;;
7493;SDS011;3788;49.902;8.590;2022-12-15T08:37:42;24.67;;;15.50;;
7493;SDS011;3788;49.902;8.590;2022-12-15T08:40:09;25.60;;;14.63;;
7493;SDS011;3788;49.902;8.590;2022-12-15T08:42:37;27.93;;;16.10;;
7493;SDS011;3788;49.902;8.590;2022-12-15T08:45:04;29.53;;;16.30;;
7493;SDS011;3788;49.902;8.590;2022-12-15T08:47:31;26.13;;;15.63;;
7493;SDS011;3788;49.902;8.590;2022-12-15T08:49:58;27.33;;;15.20;;
7493;SDS011;3788;49.902;8.590;2022-12-15T08:52:25;33.10;;;17.27;;
7493;SDS011;3788;49.902;8.590;2022-12-15T08:54:53;29.97;;;16.97;;
7493;SDS011;3788;49.902;8.590;2022-12-15T08:57:20;30.93;;;16.43;;
7493;SDS011;3788;49.902;8.590;2022-12-15T08:59:47;27.27;;;16.70;;
7493;SDS011;3788;49.902;8.590;2022-12-15T09:02:13;27.53;;;16.93;;
7493;SDS011;3788;49.902;8.590;2022-12-15T09:04:40;30.53;;;17.70;;
7493;SDS011;3788;49.902;8.590;2022-12-15T09:07:08;33.47;;;17.70;;
7493;SDS011;3788;49.902;8.590;2022-12-15T09:09:35;28.97;;;17.13;;
7493;SDS011;3788;49.902;8.590;2022-12-15T09:12:03;29.73;;;18.00;;
7493;SDS011;3788;49.902;8.590;2022-12-15T09:14:30;30.13;;;18.47;;
7493;SDS011;3788;49.902;8.590;2022-12-15T09:16:57;28.33;;;17.47;;
7493;SDS011;3788;49.902;8.590;2022-12-15T09:19:24;29.17;;;17.37;;
7493;SDS011;3788;49.902;8.590;2022-12-15T09:21:51;29.97;;;17.77;;
7493;SDS011;3788;49.902;8.590;2022-12-15T09:24:18;28.97;;;19.53;;
7493;SDS011;3788;49.902;8.590;2022-12-15T09:26:45;30.73;;;17.47;;
7493;SDS011;3788;49.902;8.590;2022-12-15T09:29:13;34.23;;;18.57;;
7493;SDS011;3788;49.902;8.590;2022-12-15T09:31:40;27.67;;;16.63;;
7493;SDS011;3788;49.902;8.590;2022-12-15T09:34:10;26.73;;;15.57;;
7493;SDS011;3788;49.902;8.590;2022-12-15T09:36:41;27.40;;;16.07;;
7493;SDS011;3788;49.902;8.590;2022-12-15T09:39:08;23.73;;;15.20;;
7493;SDS011;3788;49.902;8.590;2022-12-15T09:41:40;28.90;;;17.13;;
7493;SDS011;3788;49.902;8.590;2022-12-15T09:44:18;24.63;;;14.90;;
7493;SDS011;3788;49.902;8.590;2022-12-15T09:46:54;27.30;;;16.77;;
7493;SDS011;3788;49.902;8.590;2022-12-15T09:49:35;33.20;;;18.20;;
7493;SDS011;3788;49.902;8.590;2022-12-15T09:52:09;34.50;;;19.83;;
7493;SDS011;3788;49.902;8.590;2022-12-15T09:54:38;33.93;;;18.73;;
7493;SDS011;3788;49.902;8.590;2022-12-15T09:57:06;30.67;;;18.27;;
7493;SDS011;3788;49.902;8.590;2022-12-15T09:59:43;26.83;;;16.47;;
7493;SDS011;3788;49.902;8.590;2022-12-15T10:02:43;27.97;;;16.77;;
7493;SDS011;3788;49.902;8.590;2022-12-15T10:05:34;32.00;;;18.23;;
7493;SDS011;3788;49.902;8.590;2022-12-15T10:08:09;27.90;;;16.57;;
7493;SDS011;3788;49.902;8.590;2022-12-15T10:10:38;29.17;;;17.93;;
7493;SDS011;3788;49.902;8.590;2022-12-15T10:13:08;27.80;;;16.73;;
7493;SDS011;3788;49.902;8.590;2022-12-15T10:15:45;31.67;;;17.73;;
7493;SDS011;3788;49.902;8.590;2022-12-15T10:18:17;30.97;;;18.33;;
7493;SDS011;3788;49.902;8.590;2022-12-15T10:20:50;28.63;;;17.57;;
7493;SDS011;3788;49.902;8.590;2022-12-15T10:23:19;29.23;;;17.17;;
7493;SDS011;3788;49.902;8.590;2022-12-15T10:25:47;29.47;;;17.50;;
7493;SDS011;3788;49.902;8.590;2022-12-15T10:28:23;29.13;;;17.73;;
7493;SDS011;3788;49.902;8.590;2022-12-15T10:31:11;28.50;;;17.60;;
7493;SDS011;3788;49.902;8.590;2022-12-15T10:33:41;29.40;;;17.90;;
7493;SDS011;3788;49.902;8.590;2022-12-15T10:36:12;26.80;;;15.80;;
7493;SDS011;3788;49.902;8.590;2022-12-15T10:38:41;26.93;;;16.63;;
7493;SDS011;3788;49.902;8.590;2022-12-15T10:41:11;38.20;;;21.60;;
7493;SDS011;3788;49.902;8.590;2022-12-15T10:43:44;33.00;;;18.77;;
7493;SDS011;3788;49.902;8.590;2022-12-15T10:46:14;31.30;;;17.57;;
7493;SDS011;3788;49.902;8.590;2022-12-15T10:48:44;29.67;;;18.73;;
7493;SDS011;3788;49.902;8.590;2022-12-15T10:51:13;28.97;;;17.43;;
7493;SDS011;3788;49.902;8.590;2022-12-15T10:53:45;28.33;;;16.97;;
7493;SDS011;3788;49.902;8.590;2022-12-15T10:56:17;32.43;;;17.67;;
7493;SDS011;3788;49.902;8.590;2022-12-15T11:01:26;30.00;;;17.27;;
7493;SDS011;3788;49.902;8.590;2022-12-15T11:03:54;28.10;;;17.37;;
7493;SDS011;3788;49.902;8.590;2022-12-15T11:06:22;27.67;;;16.77;;
7493;SDS011;3788;49.902;8.590;2022-12-15T11:08:50;29.70;;;18.00;;
7493;SDS011;3788;49.902;8.590;2022-12-15T11:11:23;29.17;;;18.43;;
7493;SDS011;3788;49.902;8.590;2022-12-15T11:14:14;27.80;;;17.40;;
7493;SDS011;3788;49.902;8.590;2022-12-15T11:16:49;27.23;;;16.67;;
7493;SDS011;3788;49.902;8.590;2022-12-15T11:19:25;25.07;;;17.13;;
7493;SDS011;3788;49.902;8.590;2022-12-15T11:21:58;24.30;;;16.07;;
7493;SDS011;3788;49.902;8.590;2022-12-15T11:24:32;28.30;;;17.67;;
7493;SDS011;3788;49.902;8.590;2022-12-15T11:27:05;28.53;;;17.00;;
7493;SDS011;3788;49.902;8.590;2022-12-15T11:29:43;28.00;;;16.87;;
7493;SDS011;3788;49.902;8.590;2022-12-15T11:32:21;27.37;;;16.43;;
7493;SDS011;3788;49.902;8.590;2022-12-15T11:34:51;30.87;;;16.23;;
7493;SDS011;3788;49.902;8.590;2022-12-15T11:40:13;26.00;;;15.17;;
7493;SDS011;3788;49.902;8.590;2022-12-15T11:42:54;28.07;;;17.30;;
7493;SDS011;3788;49.902;8.590;2022-12-15T11:45:53;27.63;;;16.70;;
7493;SDS011;3788;49.902;8.590;2022-12-15T11:48:31;32.07;;;18.03;;
7493;SDS011;3788;49.902;8.590;2022-12-15T11:51:05;30.20;;;17.70;;
7493;SDS011;3788;49.902;8.590;2022-12-15T11:53:44;29.73;;;18.43;;
7493;SDS011;3788;49.902;8.590;2022-12-15T11:56:24;31.37;;;18.43;;
7493;SDS011;3788;49.902;8.590;2022-12-15T11:59:02;28.40;;;16.97;;
7493;SDS011;3788;49.902;8.590;2022-12-15T12:01:47;27.60;;;17.73;;
7493;SDS011;3788;49.902;8.590;2022-12-15T12:04:32;29.33;;;18.20;;
7493;SDS011;3788;49.902;8.590;2022-12-15T12:07:10;27.30;;;18.57;;
7493;SDS011;3788;49.902;8.590;2022-12-15T12:09:43;30.30;;;18.87;;
7493;SDS011;3788;49.902;8.590;2022-12-15T12:12:19;29.23;;;18.03;;
7493;SDS011;3788;49.902;8.590;2022-12-15T12:14:56;29.90;;;17.30;;
7493;SDS011;3788;49.902;8.590;2022-12-15T12:17:36;27.03;;;17.33;;
7493;SDS011;3788;49.902;8.590;2022-12-15T12:20:12;27.27;;;16.83;;
7493;SDS011;3788;49.902;8.590;2022-12-15T12:22:43;25.60;;;17.73;;
7493;SDS011;3788;49.902;8.590;2022-12-15T12:25:18;24.73;;;17.27;;
7493;SDS011;3788;49.902;8.590;2022-12-15T12:27:48;32.00;;;18.13;;
7493;SDS011;3788;49.902;8.590;2022-12-15T12:30:21;30.73;;;17.67;;
7493;SDS011;3788;49.902;8.590;2022-12-15T12:32:51;29.30;;;17.73;;
7493;SDS011;3788;49.902;8.590;2022-12-15T12:35:27;27.80;;;17.97;;
7493;SDS011;3788;49.902;8.590;2022-12-15T12:38:02;30.73;;;17.17;;
7493;SDS011;3788;49.902;8.590;2022-12-15T12:40:34;29.13;;;17.03;;
7493;SDS011;3788;49.902;8.590;2022-12-15T12:43:18;28.00;;;16.40;;
7493;SDS011;3788;49.902;8.590;2022-12-15T12:45:52;29.37;;;18.13;;
7493;SDS011;3788;49.902;8.590;2022-12-15T12:48:22;27.17;;;16.67;;
7493;SDS011;3788;49.902;8.590;2022-12-15T12:51:06;29.97;;;17.83;;
7493;SDS011;3788;49.902;8.590;2022-12-15T12:53:37;25.10;;;16.83;;
7493;SDS011;3788;49.902;8.590;2022-12-15T12:56:06;28.93;;;17.27;;
7493;SDS011;3788;49.902;8.590;2022-12-15T12:58:33;29.43;;;17.77;;
7493;SDS011;3788;49.902;8.590;2022-12-15T13:01:05;24.60;;;17.20;;
7493;SDS011;3788;49.902;8.590;2022-12-15T13:03:43;26.00;;;15.83;;
7493;SDS011;3788;49.902;8.590;2022-12-15T13:06:20;27.37;;;17.10;;
7493;SDS011;3788;49.902;8.590;2022-12-15T13:09:19;27.13;;;16.03;;
7493;SDS011;3788;49.902;8.590;2022-12-15T13:11:54;26.17;;;15.57;;
7493;SDS011;3788;49.902;8.590;2022-12-15T13:17:22;28.70;;;16.83;;
7493;SDS011;3788;49.902;8.590;2022-12-15T13:22:49;30.23;;;17.37;;
7493;SDS011;3788;49.902;8.590;2022-12-15T13:34:17;32.63;;;17.97;;
7493;SDS011;3788;49.902;8.590;2022-12-15T13:36:56;27.63;;;16.53;;
7493;SDS011;3788;49.902;8.590;2022-12-15T13:39:32;28.47;;;17.13;;
7493;SDS011;3788;49.902;8.590;2022-12-15T13:45:09;27.50;;;15.97;;
7493;SDS011;3788;49.902;8.590;2022-12-15T13:53:50;32.53;;;18.20;;
7493;SDS011;3788;49.902;8.590;2022-12-15T13:56:27;32.83;;;17.40;;
7493;SDS011;3788;49.902;8.590;2022-12-15T13:59:12;30.27;;;16.20;;
7493;SDS011;3788;49.902;8.590;2022-12-15T14:01:53;28.73;;;18.40;;
7493;SDS011;3788;49.902;8.590;2022-12-15T14:04:20;30.20;;;17.33;;
7493;SDS011;3788;49.902;8.590;2022-12-15T14:06:48;29.17;;;18.20;;
7493;SDS011;3788;49.902;8.590;2022-12-15T14:09:21;30.20;;;17.33;;
7493;SDS011;3788;49.902;8.590;2022-12-15T14:11:54;38.30;;;18.73;;
7493;SDS011;3788;49.902;8.590;2022-12-15T14:14:22;30.03;;;17.00;;
7493;SDS011;3788;49.902;8.590;2022-12-15T14:16:51;33.83;;;17.17;;
7493;SDS011;3788;49.902;8.590;2022-12-15T14:19:23;33.97;;;17.93;;
7493;SDS011;3788;49.902;8.590;2022-12-15T14:21:51;33.37;;;18.43;;
7493;SDS011;3788;49.902;8.590;2022-12-15T14:24:22;32.40;;;17.53;;
7493;SDS011;3788;49.902;8.590;2022-12-15T14:26:51;29.60;;;17.07;;
7493;SDS011;3788;49.902;8.590;2022-12-15T14:32:46;33.67;;;17.43;;
7493;SDS011;3788;49.902;8.590;2022-12-15T14:35:19;34.20;;;18.07;;
7493;SDS011;3788;49.902;8.590;2022-12-15T14:37:50;35.20;;;19.33;;
7493;SDS011;3788;49.902;8.590;2022-12-15T14:40:20;39.50;;;20.90;;
7493;SDS011;3788;49.902;8.590;2022-12-15T14:42:48;40.47;;;19.77;;
7493;SDS011;3788;49.902;8.590;2022-12-15T14:45:17;31.83;;;18.70;;
7493;SDS011;3788;49.902;8.590;2022-12-15T14:47:50;33.90;;;18.27;;
7493;SDS011;3788;49.902;8.590;2022-12-15T14:50:19;30.73;;;17.43;;
7493;SDS011;3788;49.902;8.590;2022-12-15T14:52:50;31.30;;;18.27;;
7493;SDS011;3788;49.902;8.590;2022-12-15T14:55:29;35.43;;;18.87;;
7493;SDS011;3788;49.902;8.590;2022-12-15T14:57:57;29.20;;;16.23;;
7493;SDS011;3788;49.902;8.590;2022-12-15T15:00:25;28.33;;;16.20;;
7493;SDS011;3788;49.902;8.590;2022-12-15T15:05:46;32.00;;;17.00;;
7493;SDS011;3788;49.902;8.590;2022-12-15T15:08:15;25.03;;;15.13;;
7493;SDS011;3788;49.902;8.590;2022-12-15T15:10:50;31.07;;;17.37;;
7493;SDS011;3788;49.902;8.590;2022-12-15T15:13:18;30.67;;;17.10;;
7493;SDS011;3788;49.902;8.590;2022-12-15T15:15:51;28.53;;;16.27;;
7493;SDS011;3788;49.902;8.590;2022-12-15T15:18:21;32.27;;;17.30;;
7493;SDS011;3788;49.902;8.590;2022-12-15T15:20:53;29.43;;;16.77;;
7493;SDS011;3788;49.902;8.590;2022-12-15T15:23:23;28.27;;;16.50;;
7493;SDS011;3788;49.902;8.590;2022-12-15T15:25:50;29.70;;;16.60;;
7493;SDS011;3788;49.902;8.590;2022-12-15T15:28:20;30.97;;;15.50;;
7493;SDS011;3788;49.902;8.590;2022-12-15T15:30:49;32.33;;;15.70;;
7493;SDS011;3788;49.902;8.590;2022-12-15T15:33:18;31.93;;;17.27;;
7493;SDS011;3788;49.902;8.590;2022-12-15T15:35:50;31.93;;;16.60;;
7493;SDS011;3788;49.902;8.590;2022-12-15T15:38:21;32.93;;;18.10;;
7493;SDS011;3788;49.902;8.590;2022-12-15T15:40:52;30.73;;;15.60;;
7493;SDS011;3788;49.902;8.590;2022-12-15T15:43:23;27.83;;;16.03;;
7493;SDS011;3788;49.902;8.590;2022-12-15T15:45:53;23.80;;;13.83;;
7493;SDS011;3788;49.902;8.590;2022-12-15T15:48:26;26.73;;;14.97;;
7493;SDS011;3788;49.902;8.590;2022-12-15T15:50:56;29.70;;;15.07;;
7493;SDS011;3788;49.902;8.590;2022-12-15T15:53:25;28.10;;;14.83;;
7493;SDS011;3788;49.902;8.590;2022-12-15T15:55:54;28.00;;;15.47;;
7493;SDS011;3788;49.902;8.590;2022-12-15T15:58:22;27.63;;;15.03;;
7493;SDS011;3788;49.902;8.590;2022-12-15T16:00:48;29.20;;;16.00;;
7493;SDS011;3788;49.902;8.590;2022-12-15T16:03:15;29.57;;;15.77;;
7493;SDS011;3788;49.902;8.590;2022-12-15T16:05:42;27.70;;;16.20;;
7493;SDS011;3788;49.902;8.590;2022-12-15T16:08:13;30.33;;;16.70;;